createdAt,value
2019-04-20T00:02:31.954Z,12.67
2019-04-20T00:07:37.762Z,13.67
2019-04-20T00:12:59.728Z,13.20
2019-04-20T00:17:56.223Z,16.53
2019-04-20T00:23:14.590Z,13.03
2019-04-20T00:28:35.237Z,14.90
2019-04-20T00:33:39.773Z,14.87
2019-04-20T00:38:39.619Z,17.17
2019-04-20T00:43:42.057Z,16.10
2019-04-20T00:48:55.996Z,15.00
2019-04-20T00:53:58.742Z,13.93
2019-04-20T00:59:19.329Z,16.20
2019-04-20T01:04:30.093Z,15.80
2019-04-20T01:09:27.100Z,17.70
2019-04-20T01:14:40.617Z,15.03
2019-04-20T01:19:40.570Z,15.90
2019-04-20T01:24:48.649Z,14.57
2019-04-20T01:30:07.112Z,17.87
2019-04-20T01:35:21.786Z,16.80
2019-04-20T01:40:11.272Z,15.83
2019-04-20T01:45:22.416Z,18.03
2019-04-20T01:50:28.434Z,20.03
2019-04-20T01:55:46.649Z,16.13
2019-04-20T02:00:46.007Z,16.30
2019-04-20T02:05:59.131Z,16.37
2019-04-20T02:11:05.371Z,17.13
2019-04-20T02:16:18.326Z,17.97
2019-04-20T02:21:34.044Z,18.73
2019-04-20T02:26:24.117Z,15.53
2019-04-20T02:32:11.887Z,17.80
2019-04-20T02:37:28.779Z,16.00
2019-04-20T02:42:35.317Z,17.70
2019-04-20T02:57:55.542Z,16.57
2019-04-20T03:02:41.200Z,18.27
2019-04-20T03:07:55.716Z,18.33
2019-04-20T03:13:05.339Z,16.67
2019-04-20T03:18:12.015Z,18.03
2019-04-20T03:28:28.041Z,16.83
2019-04-20T03:38:45.097Z,18.97
2019-04-20T03:43:28.899Z,18.50
2019-04-20T03:48:53.653Z,19.83
2019-04-20T03:54:10.719Z,17.60
2019-04-20T03:59:33.808Z,19.87
2019-04-20T04:04:59.407Z,16.53
2019-04-20T04:10:06.979Z,21.80
2019-04-20T04:14:57.825Z,18.43
2019-04-20T04:20:11.800Z,17.43
2019-04-20T04:25:25.103Z,18.33
2019-04-20T04:30:35.325Z,19.03
2019-04-20T04:35:47.914Z,20.17
2019-04-20T04:41:09.573Z,16.07
2019-04-20T04:45:46.824Z,20.10
2019-04-20T04:50:58.988Z,18.70
2019-04-20T04:56:05.734Z,18.40
2019-04-20T05:01:13.948Z,19.93
2019-04-20T05:06:31.743Z,21.90
2019-04-20T05:11:25.737Z,19.57
2019-04-20T05:16:55.556Z,17.13
2019-04-20T05:22:08.145Z,18.90
2019-04-20T05:27:13.195Z,18.97
2019-04-20T05:32:06.175Z,18.97
2019-04-20T05:37:37.122Z,17.37
2019-04-20T05:42:38.458Z,17.17
2019-04-20T05:47:43.125Z,20.50
2019-04-20T05:52:56.292Z,18.53
2019-04-20T05:58:02.116Z,16.10
2019-04-20T06:03:05.842Z,13.10
2019-04-20T06:08:20.420Z,12.90
2019-04-20T06:13:30.009Z,12.57
2019-04-20T06:18:59.397Z,13.40
2019-04-20T06:24:10.608Z,12.50
2019-04-20T06:29:16.023Z,11.47
2019-04-20T06:34:41.558Z,13.07
2019-04-20T06:39:40.348Z,11.87
2019-04-20T06:45:02.063Z,13.23
2019-04-20T06:50:07.448Z,10.57
2019-04-20T06:55:13.852Z,10.73
2019-04-20T07:00:25.360Z,10.53
2019-04-20T07:05:43.702Z,12.40
2019-04-20T07:10:52.100Z,10.67
2019-04-20T07:15:50.762Z,10.50
2019-04-20T07:21:16.323Z,10.07
2019-04-20T07:26:21.027Z,8.97
2019-04-20T07:31:18.194Z,10.57
2019-04-20T07:36:36.026Z,9.20
2019-04-20T07:41:43.259Z,9.27
2019-04-20T07:46:54.788Z,7.10
2019-04-20T07:51:35.518Z,8.40
2019-04-20T07:57:02.110Z,12.33
2019-04-20T08:02:33.409Z,14.70
2019-04-20T08:07:14.124Z,13.53
2019-04-20T08:13:00.544Z,11.70
2019-04-20T08:18:01.173Z,14.33
2019-04-20T08:23:09.710Z,15.93
2019-04-20T08:27:57.567Z,11.57
2019-04-20T08:33:27.382Z,14.03
2019-04-20T08:38:58.371Z,11.77
2019-04-20T08:43:47.390Z,13.57
2019-04-20T08:48:52.037Z,13.33
2019-04-20T08:54:00.010Z,11.13
2019-04-20T08:58:43.611Z,9.90
2019-04-20T09:03:58.907Z,9.20
2019-04-20T09:09:22.403Z,8.73
2019-04-20T09:14:23.753Z,6.17
2019-04-20T09:19:39.975Z,5.67
2019-04-20T09:25:05.677Z,4.57
2019-04-20T09:30:00.574Z,4.57
2019-04-20T09:35:13.654Z,4.23
2019-04-20T09:40:28.270Z,3.63
2019-04-20T09:45:23.252Z,2.77
2019-04-20T09:50:45.070Z,3.33
2019-04-20T09:55:52.156Z,1.77
2019-04-20T10:00:58.229Z,3.93
2019-04-20T10:05:49.809Z,2.33
2019-04-20T10:10:56.099Z,3.80
2019-04-20T10:16:02.058Z,2.20
2019-04-20T10:21:07.856Z,2.10
2019-04-20T10:26:14.375Z,2.37
2019-04-20T10:31:22.379Z,1.90
2019-04-20T10:36:33.369Z,1.53
2019-04-20T10:41:49.123Z,1.90
2019-04-20T10:46:49.146Z,1.90
2019-04-20T10:51:57.813Z,2.37
2019-04-20T10:57:03.811Z,2.70
2019-04-20T11:02:09.993Z,2.43
2019-04-20T11:07:16.590Z,2.43
2019-04-20T11:12:22.461Z,2.80
2019-04-20T11:17:29.979Z,2.17
2019-04-20T11:22:35.896Z,2.13
2019-04-20T11:27:41.681Z,2.47
2019-04-20T11:32:48.410Z,2.33
2019-04-20T11:37:57.496Z,1.50
2019-04-20T11:43:03.900Z,3.53
2019-04-20T11:48:11.631Z,3.10
2019-04-20T11:53:17.551Z,2.00
2019-04-20T11:58:23.841Z,2.33
2019-04-20T12:03:41.507Z,2.83
2019-04-20T12:08:40.243Z,1.80
2019-04-20T12:13:44.921Z,1.90
2019-04-20T12:18:50.760Z,2.67
2019-04-20T12:23:56.517Z,1.43
2019-04-20T12:29:03.541Z,1.73
2019-04-20T12:34:10.528Z,2.10
2019-04-20T12:39:17.247Z,5.63
2019-04-20T12:44:23.698Z,3.20
2019-04-20T12:49:31.717Z,4.27
2019-04-20T12:54:41.189Z,2.00
2019-04-20T12:59:46.992Z,2.23
2019-04-20T13:04:53.379Z,2.43
2019-04-20T13:10:02.075Z,4.00
2019-04-20T13:15:32.155Z,1.90
2019-04-20T13:20:38.105Z,2.07
2019-04-20T13:25:43.751Z,2.27
2019-04-20T13:30:50.127Z,4.67
2019-04-20T13:35:56.431Z,1.80
2019-04-20T13:41:02.445Z,2.30
2019-04-20T13:46:09.150Z,2.30
2019-04-20T13:51:15.228Z,3.17
2019-04-20T13:56:23.807Z,5.93
2019-04-20T14:01:50.740Z,2.43
2019-04-20T14:06:57.599Z,2.53
2019-04-20T14:12:14.195Z,5.27
2019-04-20T14:17:11.182Z,2.03
2019-04-20T14:22:18.705Z,3.90
2019-04-20T14:27:24.667Z,2.37
2019-04-20T14:32:30.573Z,2.40
2019-04-20T14:37:36.425Z,2.63
2019-04-20T14:42:47.794Z,1.90
2019-04-20T14:47:51.936Z,2.43
2019-04-20T14:52:57.682Z,2.50
2019-04-20T14:58:05.789Z,1.63
2019-04-20T15:03:28.516Z,7.87
2019-04-20T15:08:34.564Z,4.83
2019-04-20T15:13:40.709Z,4.37
2019-04-20T15:18:58.109Z,2.73
2019-04-20T15:24:04.017Z,2.23
2019-04-20T15:29:10.507Z,2.43
2019-04-20T15:34:17.053Z,3.83
2019-04-20T15:39:25.148Z,2.93
2019-04-20T15:44:31.480Z,2.37
2019-04-20T15:49:37.754Z,3.00
2019-04-20T15:54:43.901Z,2.40
2019-04-20T15:59:50.627Z,3.47
2019-04-20T16:04:58.365Z,3.67
2019-04-20T16:10:07.457Z,2.60
2019-04-20T16:15:13.632Z,4.33
2019-04-20T16:20:23.379Z,2.93
2019-04-20T16:25:32.059Z,3.57
2019-04-20T16:30:38.085Z,2.30
2019-04-20T16:35:44.594Z,2.93
2019-04-20T16:40:50.676Z,3.23
2019-04-20T16:45:57.586Z,2.47
2019-04-20T16:51:04.782Z,3.10
2019-04-20T16:56:10.932Z,2.30
2019-04-20T17:01:17.225Z,2.90
2019-04-20T17:06:24.249Z,2.53
2019-04-20T17:11:30.314Z,2.87
2019-04-20T17:16:37.550Z,2.33
2019-04-20T17:21:44.606Z,3.27
2019-04-20T17:26:52.946Z,2.70
2019-04-20T17:32:08.045Z,3.23
2019-04-20T17:37:15.254Z,3.73
2019-04-20T17:42:38.895Z,3.00
2019-04-20T17:47:47.132Z,3.83
2019-04-20T17:52:57.872Z,5.27
2019-04-20T17:57:44.053Z,12.77
2019-04-20T18:03:10.072Z,3.50
2019-04-20T18:08:20.431Z,3.20
2019-04-20T18:13:16.617Z,3.63
2019-04-20T18:18:35.308Z,3.23
2019-04-20T18:23:36.284Z,2.90
2019-04-20T18:28:58.641Z,3.97
2019-04-20T18:33:44.599Z,3.80
2019-04-20T18:38:57.474Z,3.20
2019-04-20T18:43:59.098Z,3.73
2019-04-20T18:49:18.320Z,3.70
2019-04-20T18:54:18.849Z,4.87
2019-04-20T18:59:23.373Z,5.27
2019-04-20T19:04:28.142Z,5.23
2019-04-20T19:09:36.024Z,5.13
2019-04-20T19:14:51.386Z,5.03
2019-04-20T19:20:14.404Z,5.57
2019-04-20T19:25:27.384Z,4.80
2019-04-20T19:30:37.246Z,3.97
2019-04-20T19:35:46.830Z,3.77
2019-04-20T19:40:55.978Z,4.37
2019-04-20T19:46:29.385Z,6.50
2019-04-20T19:51:27.243Z,3.40
2019-04-20T19:56:22.496Z,3.63
2019-04-20T20:01:13.933Z,4.20
2019-04-20T20:06:29.314Z,4.07
2019-04-20T20:11:32.316Z,5.33
2019-04-20T20:16:56.428Z,4.00
2019-04-20T20:22:00.257Z,3.40
2019-04-20T20:26:56.280Z,4.27
2019-04-20T20:32:11.495Z,4.10
2019-04-20T20:37:12.434Z,3.70
2019-04-20T20:42:23.248Z,3.40
2019-04-20T20:47:41.264Z,2.80
2019-04-20T20:52:44.038Z,4.87
2019-04-20T20:57:44.968Z,3.83
2019-04-20T21:02:52.443Z,4.23
2019-04-20T21:07:51.586Z,4.10
2019-04-20T21:13:01.351Z,3.53
2019-04-20T21:18:27.476Z,3.80
2019-04-20T21:23:28.515Z,3.47
2019-04-20T21:28:20.913Z,5.47
2019-04-20T21:33:30.229Z,4.63
2019-04-20T21:38:39.292Z,4.83
2019-04-20T21:43:44.424Z,4.73
2019-04-20T21:49:01.653Z,4.60
2019-04-20T21:53:59.787Z,6.47
2019-04-20T21:59:14.312Z,4.90
2019-04-20T22:04:14.287Z,7.23
2019-04-20T22:09:20.440Z,3.90
2019-04-20T22:14:31.826Z,6.03
2019-04-20T22:19:44.071Z,6.10
2019-04-20T22:25:00.023Z,6.17
2019-04-20T22:29:50.231Z,5.33
2019-04-20T22:35:03.059Z,5.67
2019-04-20T22:40:11.808Z,6.23
2019-04-20T22:45:15.616Z,5.53
2019-04-20T22:50:40.137Z,4.20
2019-04-20T22:55:55.788Z,5.70
2019-04-20T23:00:49.051Z,6.47
2019-04-20T23:05:46.986Z,6.43
2019-04-20T23:10:53.517Z,4.60
2019-04-20T23:16:01.974Z,7.07
2019-04-20T23:21:10.487Z,7.13
2019-04-20T23:26:19.334Z,5.27
2019-04-20T23:31:25.170Z,6.63
2019-04-20T23:36:36.535Z,7.63
2019-04-20T23:41:37.702Z,6.73
2019-04-20T23:47:01.175Z,5.53
2019-04-20T23:52:26.378Z,7.73
2019-04-20T23:57:09.031Z,4.00
